Time;durP1;ratioP1;P1;durP2;ratioP2;P2;SDS_P1;SDS_P2;PMS_P1;PMS_P2;Temp;Humidity;BMP_temperature;BMP_pressure;BME280_temperature;BME280_humidity;BME280_pressure;Samples;Min_cycle;Max_cycle;Signal;HPM_P1;HPM_P2
2023/05/28 00:02:09;;;;;;;11.18;5.15;;;;;;;8.15;99.08;102136.19;4981540;28;20185;-48
2023/05/28 00:04:35;;;;;;;6.97;4.68;;;;;;;8.14;99.87;102129.09;4983742;28;20223;-47
2023/05/28 00:07:00;;;;;;;7.75;4.25;;;;;;;8.28;100.00;102139.66;4978060;28;20173;-47
2023/05/28 00:09:26;;;;;;;7.38;4.35;;;;;;;8.40;100.00;102142.28;4978602;28;20220;-47
2023/05/28 00:11:51;;;;;;;7.22;4.32;;;;;;;8.36;100.00;102126.28;4981062;28;20194;-50
2023/05/28 00:14:17;;;;;;;7.32;4.60;;;;;;;8.45;100.00;102139.56;4979873;28;20186;-46
2023/05/28 00:16:44;;;;;;;8.80;4.45;;;;;;;8.36;100.00;102139.63;4981540;28;20205;-49
2023/05/28 00:19:10;;;;;;;7.93;4.97;;;;;;;8.44;100.00;102130.69;4982881;28;20617;-47
2023/05/28 00:21:36;;;;;;;6.75;4.43;;;;;;;8.46;100.00;102138.66;4980449;28;20245;-48
2023/05/28 00:24:03;;;;;;;8.15;4.22;;;;;;;8.38;100.00;102145.84;4982059;28;20247;-48
2023/05/28 00:26:29;;;;;;;9.60;4.80;;;;;;;8.02;100.00;102127.41;4979136;28;20273;-47
2023/05/28 00:28:56;;;;;;;9.27;4.95;;;;;;;8.08;100.00;102129.13;4979155;28;20660;-47
2023/05/28 00:31:21;;;;;;;7.15;4.00;;;;;;;8.14;100.00;102130.91;4987704;28;20209;-47
2023/05/28 00:33:47;;;;;;;11.15;5.07;;;;;;;7.84;100.00;102123.06;4979418;28;20197;-46
2023/05/28 00:36:13;;;;;;;6.57;4.30;;;;;;;8.04;100.00;102130.94;4980009;28;20321;-47
2023/05/28 00:38:38;;;;;;;9.90;4.85;;;;;;;8.09;100.00;102124.69;4987165;28;20182;-47
2023/05/28 00:41:04;;;;;;;10.98;4.35;;;;;;;7.87;100.00;102126.59;4976422;28;20175;-47
2023/05/28 00:43:30;;;;;;;9.40;4.88;;;;;;;7.84;100.00;102132.84;4977397;28;20185;-47
2023/05/28 00:46:02;;;;;;;8.43;4.70;;;;;;;7.86;100.00;102130.19;4981001;28;20198;-48
2023/05/28 00:48:29;;;;;;;10.70;4.68;;;;;;;7.90;100.00;102126.59;4983712;28;20184;-50
2023/05/28 00:50:55;;;;;;;6.95;4.32;;;;;;;8.02;100.00;102131.84;4981463;28;20285;-49
2023/05/28 00:53:23;;;;;;;7.82;4.55;;;;;;;8.04;100.00;102130.94;4979759;28;20265;-49
2023/05/28 00:55:48;;;;;;;8.90;4.38;;;;;;;7.98;100.00;102122.09;4978196;28;20209;-48
2023/05/28 00:58:15;;;;;;;9.05;5.00;;;;;;;7.96;100.00;102121.19;4978782;28;20276;-47
2023/05/28 01:00:45;;;;;;;8.10;4.43;;;;;;;8.02;100.00;102131.84;4981838;28;20177;-48
2023/05/28 01:03:11;;;;;;;6.00;4.05;;;;;;;8.05;100.00;102126.50;4979536;28;20640;-47
2023/05/28 01:05:37;;;;;;;10.30;5.03;;;;;;;7.97;100.00;102126.53;4983586;28;20696;-47
2023/05/28 01:08:03;;;;;;;6.20;4.53;;;;;;;7.97;100.00;102125.66;4977251;28;20229;-47
2023/05/28 01:10:31;;;;;;;7.85;4.20;;;;;;;7.96;100.00;102134.53;4976427;28;20209;-47
2023/05/28 01:12:58;;;;;;;7.07;4.60;;;;;;;7.62;100.00;102130.28;4987475;28;20560;-48
2023/05/28 01:15:25;;;;;;;9.45;4.80;;;;;;;7.64;100.00;102127.63;4980031;28;20263;-48
2023/05/28 01:17:57;;;;;;;7.10;4.70;;;;;;;7.56;100.00;102124.09;4980837;28;20194;-46
2023/05/28 01:20:25;;;;;;;8.05;4.60;;;;;;;7.52;100.00;102133.00;4977100;28;20282;-48
2023/05/28 01:22:55;;;;;;;7.10;4.53;;;;;;;7.63;100.00;102133.84;4975839;28;20520;-48
2023/05/28 01:25:22;;;;;;;7.30;4.45;;;;;;;7.63;100.00;102137.44;4979039;28;20712;-47
2023/05/28 01:27:49;;;;;;;7.75;4.00;;;;;;;7.71;100.00;102139.16;4977070;28;20196;-47
2023/05/28 01:30:16;;;;;;;6.63;4.40;;;;;;;7.73;100.00;102150.72;4977959;28;20190;-47
2023/05/28 01:32:43;;;;;;;9.32;4.63;;;;;;;7.56;100.00;102141.00;4987115;28;20244;-48
2023/05/28 01:35:10;;;;;;;12.52;5.30;;;;;;;7.40;100.00;102150.84;4979888;28;20284;-46
2023/05/28 01:37:39;;;;;;;9.40;4.97;;;;;;;7.25;100.00;102142.03;4986578;28;20645;-48
2023/05/28 01:40:07;;;;;;;9.15;4.55;;;;;;;7.20;100.00;102136.72;4978558;28;20244;-46
2023/05/28 01:42:34;;;;;;;10.38;4.72;;;;;;;7.29;100.00;102146.47;4975721;28;20220;-47
2023/05/28 01:45:02;;;;;;;12.52;5.32;;;;;;;7.19;100.00;102145.59;4982081;28;20234;-49
2023/05/28 01:47:33;;;;;;;6.72;4.60;;;;;;;7.36;100.00;102142.88;4976654;28;20190;-47
2023/05/28 01:49:59;;;;;;;13.07;4.95;;;;;;;7.29;100.00;102144.66;4978960;28;20251;-47
2023/05/28 01:52:25;;;;;;;6.97;4.10;;;;;;;7.38;100.00;102149.09;4979973;28;20190;-50
2023/05/28 01:54:51;;;;;;;8.13;4.65;;;;;;;7.17;100.00;102155.34;4986658;28;20272;-47
2023/05/28 01:57:17;;;;;;;6.07;4.53;;;;;;;7.16;100.00;102156.25;4980922;28;20687;-48
2023/05/28 01:59:43;;;;;;;6.88;4.65;;;;;;;7.30;100.00;102146.44;4986911;28;20182;-48
2023/05/28 02:02:10;;;;;;;7.93;4.55;;;;;;;7.17;100.00;102142.03;4976390;28;20221;-48
2023/05/28 02:04:35;;;;;;;9.18;4.80;;;;;;;7.21;100.00;102128.72;4976868;28;20206;-49
2023/05/28 02:07:03;;;;;;;9.57;4.70;;;;;;;7.37;100.00;102148.22;4986427;28;20193;-48
2023/05/28 02:09:28;;;;;;;8.93;4.65;;;;;;;7.38;100.00;102139.28;4977217;28;20178;-49
2023/05/28 02:11:54;;;;;;;8.63;4.55;;;;;;;7.53;100.00;102149.03;4986220;28;20256;-48
2023/05/28 02:14:20;;;;;;;8.15;4.63;;;;;;;7.51;100.00;102142.81;4984966;28;20217;-48
2023/05/28 02:16:49;;;;;;;10.02;4.55;;;;;;;7.50;100.00;102135.72;4982492;28;20189;-48
2023/05/28 02:19:17;;;;;;;7.35;4.00;;;;;;;7.61;100.00;102133.00;4992737;28;20186;-48
2023/05/28 02:21:42;;;;;;;5.88;4.47;;;;;;;7.67;100.00;102132.94;4988015;28;20232;-48
2023/05/28 02:24:08;;;;;;;5.63;4.10;;;;;;;7.75;100.00;102120.44;4986675;28;20516;-48
2023/05/28 02:26:34;;;;;;;6.82;4.53;;;;;;;7.70;100.00;102113.38;4973374;28;20182;-47
2023/05/28 02:28:59;;;;;;;7.22;4.45;;;;;;;7.62;100.00;102118.75;4975370;28;20189;-46
2023/05/28 02:31:25;;;;;;;8.25;4.80;;;;;;;7.71;100.00;102116.03;4977466;28;20288;-47
2023/05/28 02:33:51;;;;;;;8.30;4.80;;;;;;;7.81;100.00;102114.22;4977636;28;20325;-48
2023/05/28 02:36:16;;;;;;;7.43;4.35;;;;;;;7.91;100.00;102112.34;4986510;28;20217;-50
2023/05/28 02:38:42;;;;;;;10.05;4.85;;;;;;;7.91;100.00;102113.22;4979678;28;20181;-45
2023/05/28 02:41:09;;;;;;;9.35;4.63;;;;;;;7.89;100.00;102107.00;4974143;28;20657;-49
2023/05/28 02:43:36;;;;;;;12.20;5.50;;;;;;;7.84;100.00;102107.06;4987097;28;20691;-48
2023/05/28 02:46:04;;;;;;;7.88;4.20;;;;;;;7.95;100.00;102104.31;4982931;28;20332;-48
2023/05/28 02:48:30;;;;;;;6.00;4.13;;;;;;;8.05;100.00;102107.81;4985768;28;20173;-47
2023/05/28 02:50:56;;;;;;;7.47;4.40;;;;;;;8.12;100.00;102106.88;4987066;28;20202;-46
2023/05/28 02:53:51;;;;;;;7.47;4.22;;;;;;;8.11;100.00;102096.19;4976582;28;20178;-48
2023/05/28 02:56:17;;;;;;;6.18;4.70;;;;;;;7.93;100.00;102098.09;4975453;28;20255;-47
2023/05/28 02:58:44;;;;;;;8.25;5.03;;;;;;;8.03;100.00;102096.28;4979732;28;20276;-47
2023/05/28 03:01:10;;;;;;;7.60;4.60;;;;;;;8.14;100.00;102101.53;4975599;28;20612;-48
2023/05/28 03:03:35;;;;;;;8.23;4.72;;;;;;;8.05;100.00;102089.13;4986173;28;20216;-47
2023/05/28 03:06:02;;;;;;;10.88;5.05;;;;;;;8.02;100.00;102089.13;4967382;28;20237;-49
2023/05/28 03:08:31;;;;;;;9.52;5.03;;;;;;;8.07;100.00;102095.34;4985817;28;20197;-47
2023/05/28 03:10:56;;;;;;;7.53;4.45;;;;;;;8.18;100.00;102092.59;4976607;28;20229;-47
2023/05/28 03:13:22;;;;;;;9.73;5.18;;;;;;;8.02;100.00;102099.81;4979919;28;20236;-46
2023/05/28 03:15:48;;;;;;;7.57;4.93;;;;;;;7.93;100.00;102106.09;4981638;28;20650;-48
2023/05/28 03:18:14;;;;;;;7.00;4.90;;;;;;;7.98;100.00;102109.66;4976664;28;20233;-45
2023/05/28 03:20:39;;;;;;;7.90;5.03;;;;;;;7.91;100.00;102107.00;4977205;28;20209;-47
2023/05/28 03:23:05;;;;;;;7.63;4.70;;;;;;;7.98;100.00;102116.75;4974548;28;20629;-47
2023/05/28 03:25:40;;;;;;;8.77;5.05;;;;;;;8.08;100.00;102120.25;4975985;28;20729;-46
2023/05/28 03:28:05;;;;;;;7.93;4.82;;;;;;;8.10;100.00;102126.47;4963988;28;20281;-48
2023/05/28 03:30:46;;;;;;;8.80;4.43;;;;;;;8.18;100.00;102117.50;4976911;28;20240;-47
2023/05/28 03:33:12;;;;;;;8.70;4.75;;;;;;;8.11;100.00;102118.47;4974899;28;20232;-48
2023/05/28 03:35:37;;;;;;;8.77;4.97;;;;;;;8.15;100.00;102119.31;4986171;28;20237;-47
2023/05/28 03:38:03;;;;;;;9.18;4.85;;;;;;;8.23;100.00;102131.69;4987833;28;20617;-48
2023/05/28 03:40:29;;;;;;;7.00;4.90;;;;;;;8.20;100.00;102126.41;4978233;28;20277;-48
2023/05/28 03:42:54;;;;;;;8.60;4.75;;;;;;;8.37;100.00;102128.03;4978744;28;20240;-47
2023/05/28 03:45:20;;;;;;;6.50;4.32;;;;;;;8.47;100.00;102113.75;4981748;28;20214;-48
2023/05/28 03:47:45;;;;;;;6.22;4.60;;;;;;;8.56;100.00;102123.47;4978157;28;20190;-47
2023/05/28 03:50:12;;;;;;;6.43;4.00;;;;;;;8.65;100.00;102121.56;4991814;28;20565;-47
2023/05/28 03:52:39;;;;;;;6.28;4.45;;;;;;;8.70;100.00;102117.97;4989222;28;20233;-48
2023/05/28 03:55:05;;;;;;;8.38;4.95;;;;;;;8.74;100.00;102127.75;4982025;28;20218;-49
2023/05/28 03:57:31;;;;;;;7.47;4.55;;;;;;;8.72;100.00;102130.41;4980315;28;20181;-49
2023/05/28 03:59:57;;;;;;;9.23;4.88;;;;;;;8.65;100.00;102129.59;4977583;28;20196;-48
2023/05/28 04:02:23;;;;;;;6.55;4.95;;;;;;;8.82;100.00;102128.56;4977526;28;20257;-48
2023/05/28 04:04:49;;;;;;;7.60;4.50;;;;;;;8.91;100.00;102130.25;4979672;28;20213;-48
2023/05/28 04:07:15;;;;;;;7.53;4.57;;;;;;;8.87;100.00;102126.72;4980362;28;20245;-48
2023/05/28 04:09:40;;;;;;;9.07;5.57;;;;;;;8.99;100.00;102129.25;4977751;28;20234;-48
2023/05/28 04:12:06;;;;;;;10.23;5.65;;;;;;;9.15;100.00;102127.31;4987226;28;20551;-47
2023/05/28 04:14:32;;;;;;;7.63;5.25;;;;;;;9.25;100.00;102131.66;4986758;28;20293;-49
2023/05/28 04:16:57;;;;;;;11.95;6.30;;;;;;;9.28;100.00;102138.75;4974175;28;20214;-48
2023/05/28 04:19:23;;;;;;;12.32;5.68;;;;;;;9.38;100.00;102139.50;4980768;28;20252;-47
2023/05/28 04:21:49;;;;;;;8.52;6.00;;;;;;;9.36;100.00;102130.59;4981358;28;20204;-48
2023/05/28 04:24:14;;;;;;;9.02;6.43;;;;;;;9.43;100.00;102138.56;4981965;28;20665;-47
2023/05/28 04:26:40;;;;;;;8.70;5.80;;;;;;;9.48;100.00;102136.69;4976749;28;20657;-47
2023/05/28 04:29:06;;;;;;;13.05;6.32;;;;;;;9.56;100.00;102141.09;4973795;28;20209;-48
2023/05/28 04:31:32;;;;;;;9.27;5.57;;;;;;;9.61;100.00;102145.47;4980573;28;20245;-47
2023/05/28 04:33:59;;;;;;;12.20;6.35;;;;;;;9.77;100.00;102132.75;4977212;28;20289;-47
2023/05/28 04:36:29;;;;;;;8.52;6.30;;;;;;;9.88;100.00;102130.81;4980673;28;20192;-48
2023/05/28 04:39:00;;;;;;;14.32;6.55;;;;;;;9.96;100.00;102132.50;4988476;28;20193;-50
2023/05/28 04:41:27;;;;;;;13.00;6.55;;;;;;;9.99;100.00;102125.31;4983179;28;20255;-47
2023/05/28 04:43:53;;;;;;;7.50;5.60;;;;;;;10.09;100.00;102118.88;4966296;28;20213;-48
2023/05/28 04:46:18;;;;;;;7.80;5.60;;;;;;;10.15;100.00;102117.94;4986627;28;20517;-48
2023/05/28 04:48:45;;;;;;;11.77;6.40;;;;;;;10.27;100.00;102117.72;4978603;28;20181;-47
2023/05/28 04:51:11;;;;;;;10.27;6.05;;;;;;;10.34;100.00;102113.16;4979794;28;20710;-47
2023/05/28 04:53:36;;;;;;;11.52;6.25;;;;;;;10.43;100.00;102112.13;4979553;28;20198;-46
2023/05/28 04:56:03;;;;;;;12.68;6.43;;;;;;;10.52;100.00;102103.97;4979237;28;20259;-48
2023/05/28 04:58:29;;;;;;;12.07;6.85;;;;;;;10.60;100.00;102110.03;4978347;28;20731;-48
2023/05/28 05:00:56;;;;;;;10.52;6.45;;;;;;;10.60;100.00;102112.72;4987868;28;20190;-46
2023/05/28 05:03:22;;;;;;;12.20;6.93;;;;;;;10.75;100.00;102105.31;4978057;28;20247;-49
2023/05/28 05:05:47;;;;;;;13.90;6.78;;;;;;;10.74;100.00;102095.53;4978809;28;20284;-48
2023/05/28 05:08:13;;;;;;;11.18;6.68;;;;;;;10.85;100.00;102113.16;4987950;28;20194;-47
2023/05/28 05:10:40;;;;;;;15.65;8.13;;;;;;;10.92;100.00;102105.91;4988833;28;20225;-47
2023/05/28 05:13:06;;;;;;;15.65;7.88;;;;;;;10.99;100.00;102110.22;4976425;28;20197;-46
2023/05/28 05:15:32;;;;;;;13.65;8.07;;;;;;;11.05;100.00;102112.78;4976667;28;20232;-47
2023/05/28 05:17:59;;;;;;;20.20;8.70;;;;;;;11.08;100.00;102122.56;4979075;28;20217;-49
2023/05/28 05:20:27;;;;;;;16.23;8.10;;;;;;;11.03;100.00;102122.66;4985967;28;20649;-48
2023/05/28 05:22:53;;;;;;;19.02;8.45;;;;;;;11.02;100.00;102122.69;4988033;28;20181;-46
2023/05/28 05:25:18;;;;;;;13.20;7.30;;;;;;;10.97;100.00;102128.13;4986089;28;20579;-48
2023/05/28 05:27:44;;;;;;;14.90;6.30;;;;;;;10.94;100.00;102130.88;4984024;28;20297;-47
2023/05/28 05:30:10;;;;;;;12.90;6.10;;;;;;;10.96;100.00;102134.41;4986129;28;20213;-48
2023/05/28 05:32:36;;;;;;;11.38;5.28;;;;;;;10.97;100.00;102136.19;4973936;28;20236;-48
2023/05/28 05:35:02;;;;;;;8.77;4.72;;;;;;;11.02;100.00;102133.41;4977239;28;20202;-50
2023/05/28 05:37:46;;;;;;;7.78;4.72;;;;;;;10.98;100.00;102129.91;4979709;28;20216;-50
2023/05/28 05:40:47;;;;;;;10.82;4.18;;;;;;;11.08;100.00;102127.94;4981546;28;20189;-48
2023/05/28 05:43:26;;;;;;;12.95;4.40;;;;;;;11.08;100.00;102127.94;4973999;28;20478;-48
2023/05/28 05:45:51;;;;;;;11.38;3.45;;;;;;;11.13;100.00;102128.75;4979569;28;20208;-48
2023/05/28 05:48:17;;;;;;;7.80;2.88;;;;;;;11.10;99.54;102124.28;4985931;28;20202;-49
2023/05/28 05:50:50;;;;;;;5.80;2.65;;;;;;;11.19;97.35;102125.03;4975289;28;20213;-48
2023/05/28 05:53:17;;;;;;;7.93;3.20;;;;;;;11.19;95.79;102120.53;5007201;23;20223;-47
2023/05/28 05:55:43;;;;;;;7.07;2.70;;;;;;;11.20;94.24;102118.78;4990040;28;20733;-51
2023/05/28 05:58:09;;;;;;;6.10;3.00;;;;;;;11.21;93.04;102116.03;4989740;28;20265;-48
2023/05/28 06:00:35;;;;;;;6.47;2.78;;;;;;;11.25;92.41;102111.50;4989719;28;20312;-48
2023/05/28 06:03:00;;;;;;;6.95;3.00;;;;;;;11.19;91.39;102100.91;4991027;28;20173;-48
2023/05/28 06:05:45;;;;;;;6.38;3.03;;;;;;;11.19;91.72;102099.09;4991097;28;20317;-47
2023/05/28 06:08:35;;;;;;;8.13;2.97;;;;;;;11.31;92.37;102106.91;4982513;28;20197;-48
2023/05/28 06:11:09;;;;;;;7.40;3.20;;;;;;;11.42;91.39;102098.63;4989649;28;20201;-47
2023/05/28 06:13:36;;;;;;;5.82;3.20;;;;;;;11.53;90.05;102104.63;4989603;28;20295;-52
2023/05/28 06:16:03;;;;;;;6.32;2.83;;;;;;;11.51;89.41;102110.97;4958836;28;20225;-51
2023/05/28 06:18:32;;;;;;;4.00;2.55;;;;;;;11.65;89.71;102129.44;4971380;28;20182;-47
2023/05/28 06:20:59;;;;;;;6.28;2.53;;;;;;;11.74;89.51;102115.81;4970017;28;20215;-49
2023/05/28 06:23:25;;;;;;;6.47;2.63;;;;;;;11.96;88.69;102118.94;5001532;28;20200;-46
2023/05/28 06:25:51;;;;;;;5.63;2.75;;;;;;;12.03;86.94;102111.63;4989430;28;20202;-46
2023/05/28 06:28:16;;;;;;;5.75;2.78;;;;;;;12.14;86.07;102101.50;4985838;28;20197;-49
2023/05/28 06:30:43;;;;;;;6.78;3.00;;;;;;;12.51;85.19;102103.25;4969922;28;20194;-52
2023/05/28 06:33:09;;;;;;;7.90;2.90;;;;;;;12.32;84.82;102105.53;4969780;28;20194;-47
2023/05/28 06:35:35;;;;;;;7.78;2.90;;;;;;;12.50;84.39;102096.09;4973130;28;20305;-48
2023/05/28 06:38:01;;;;;;;10.15;3.20;;;;;;;12.66;83.56;102093.88;4977514;28;20283;-49
2023/05/28 06:40:27;;;;;;;5.95;3.00;;;;;;;12.90;80.63;102081.59;4975629;28;20197;-49
2023/05/28 06:42:53;;;;;;;10.43;3.58;;;;;;;12.89;80.42;102086.09;4985281;28;20199;-50
2023/05/28 06:45:39;;;;;;;8.52;3.20;;;;;;;13.13;80.35;102083.63;4973882;28;20688;-49
2023/05/28 06:48:06;;;;;;;7.28;3.22;;;;;;;13.23;77.85;102066.31;4986911;28;20213;-48
2023/05/28 06:50:32;;;;;;;5.97;2.80;;;;;;;13.47;75.48;102059.34;4985483;28;20249;-49
2023/05/28 06:52:58;;;;;;;7.43;2.95;;;;;;;13.63;73.55;102050.78;4977056;28;20194;-49
2023/05/28 06:55:24;;;;;;;5.55;3.00;;;;;;;13.88;73.28;102040.97;4979323;28;20212;-48
2023/05/28 06:58:10;;;;;;;6.65;2.88;;;;;;;13.77;74.67;102059.28;4979569;28;20204;-49
2023/05/28 07:00:54;;;;;;;8.15;3.15;;;;;;;13.92;76.61;102072.25;4980556;28;20232;-48
2023/05/28 07:03:35;;;;;;;8.50;3.55;;;;;;;13.76;78.93;102090.72;5251133;23;20260;-48
2023/05/28 07:06:21;;;;;;;7.82;3.28;;;;;;;13.91;80.06;102086.69;4979915;28;20247;-46
2023/05/28 07:08:47;;;;;;;8.55;3.28;;;;;;;14.13;80.50;102094.06;4977960;28;20200;-47
2023/05/28 07:11:14;;;;;;;11.73;4.10;;;;;;;13.81;81.15;102095.97;4979082;28;20235;-47
2023/05/28 07:13:44;;;;;;;12.90;3.75;;;;;;;14.10;81.44;102100.44;4975219;28;20276;-49
2023/05/28 07:16:10;;;;;;;8.05;3.15;;;;;;;14.16;81.01;102105.63;4983138;28;20214;-47
2023/05/28 07:18:36;;;;;;;10.13;3.38;;;;;;;13.94;81.35;102102.72;4980303;28;20194;-47
2023/05/28 07:21:05;;;;;;;8.98;3.78;;;;;;;14.32;81.58;102097.94;4984804;28;20190;-46
2023/05/28 07:23:35;;;;;;;10.73;3.30;;;;;;;14.53;81.34;102098.13;4986920;28;20186;-46
2023/05/28 07:26:02;;;;;;;12.85;3.55;;;;;;;14.58;81.55;102093.47;4988253;28;20237;-47
2023/05/28 07:28:28;;;;;;;9.25;3.72;;;;;;;14.50;81.96;102100.94;4990651;28;20603;-49
2023/05/28 07:30:54;;;;;;;10.07;4.00;;;;;;;14.63;82.43;102102.31;4986561;28;20237;-47
2023/05/28 07:33:20;;;;;;;10.27;3.38;;;;;;;14.66;82.28;102112.97;4991721;28;20655;-50
2023/05/28 07:35:46;;;;;;;10.77;3.40;;;;;;;14.71;82.83;102113.69;4989812;28;20256;-52
2023/05/28 07:38:14;;;;;;;8.60;3.45;;;;;;;14.62;83.15;102114.00;4982765;28;20216;-51
2023/05/28 07:40:40;;;;;;;12.82;3.70;;;;;;;14.47;83.17;102103.72;4988507;28;20185;-52
2023/05/28 07:43:15;;;;;;;16.33;4.05;;;;;;;14.75;83.14;102115.34;4978696;28;20339;-48
2023/05/28 07:45:41;;;;;;;9.27;3.70;;;;;;;14.58;83.02;102123.13;4988407;28;20202;-48
2023/05/28 07:48:07;;;;;;;11.95;3.42;;;;;;;14.82;82.09;102116.91;4988452;28;20243;-46
2023/05/28 07:50:56;;;;;;;11.55;3.67;;;;;;;14.57;82.24;102116.00;4976774;28;20695;-50
2023/05/28 07:53:40;;;;;;;10.05;3.72;;;;;;;14.74;82.82;102113.59;4987771;28;20226;-51
2023/05/28 07:56:09;;;;;;;11.45;3.80;;;;;;;14.69;83.27;102115.53;4990890;28;20205;-48
2023/05/28 07:58:35;;;;;;;10.05;3.90;;;;;;;14.28;83.50;102123.22;4992036;28;20189;-48
2023/05/28 08:01:01;;;;;;;14.82;4.05;;;;;;;14.96;83.58;102113.72;4990053;28;20185;-48
2023/05/28 08:03:27;;;;;;;9.20;3.15;;;;;;;15.04;82.12;102108.00;4982523;28;20283;-47
2023/05/28 08:05:54;;;;;;;9.40;3.80;;;;;;;15.12;82.19;102108.63;4986741;28;20288;-46
2023/05/28 08:08:20;;;;;;;11.05;3.65;;;;;;;15.76;82.85;102112.53;4978988;28;20177;-51
2023/05/28 08:10:46;;;;;;;12.73;3.85;;;;;;;15.81;81.55;102103.31;4985818;28;20263;-48
2023/05/28 08:13:13;;;;;;;11.80;4.25;;;;;;;15.47;81.01;102098.31;4983219;28;20252;-48
2023/05/28 08:15:39;;;;;;;14.73;4.57;;;;;;;15.08;81.58;102101.56;4977687;28;20206;-50
2023/05/28 08:18:07;;;;;;;10.80;4.15;;;;;;;15.62;82.53;102102.25;4992748;28;20570;-47
2023/05/28 08:20:33;;;;;;;13.05;3.67;;;;;;;15.90;82.02;102101.19;4978937;28;20244;-48
2023/05/28 08:23:06;;;;;;;11.30;3.80;;;;;;;15.59;81.76;102105.97;4988420;28;20691;-49
2023/05/28 08:25:33;;;;;;;13.82;4.10;;;;;;;15.43;82.23;102110.16;4981144;28;20237;-47
2023/05/28 08:28:05;;;;;;;13.50;3.72;;;;;;;15.54;81.86;102110.63;4980139;28;20189;-48
2023/05/28 08:30:31;;;;;;;13.25;4.38;;;;;;;15.47;82.11;102116.34;4981593;28;20217;-47
2023/05/28 08:33:03;;;;;;;10.32;3.83;;;;;;;15.30;82.06;102112.44;4980979;28;20197;-47
2023/05/28 08:35:29;;;;;;;14.77;4.05;;;;;;;15.61;81.67;102117.59;4986316;28;20582;-48
2023/05/28 08:37:56;;;;;;;12.27;3.70;;;;;;;15.45;81.26;102116.41;4980088;28;20291;-48
2023/05/28 08:40:40;;;;;;;11.60;4.10;;;;;;;15.55;80.93;102108.84;4989732;28;20205;-47
2023/05/28 08:43:08;;;;;;;9.52;3.70;;;;;;;15.58;80.09;102095.19;4982016;28;20553;-48
2023/05/28 08:45:35;;;;;;;14.60;3.88;;;;;;;15.53;79.16;102095.38;4983177;28;20244;-50
2023/05/28 08:48:01;;;;;;;9.70;3.85;;;;;;;15.70;79.48;102096.53;4987665;28;20277;-47
2023/05/28 08:50:27;;;;;;;8.73;3.65;;;;;;;15.69;78.19;102094.78;4989552;28;20308;-47
2023/05/28 08:53:21;;;;;;;10.10;3.78;;;;;;;15.69;79.15;102103.75;4979809;28;20185;-48
2023/05/28 08:55:47;;;;;;;9.00;3.40;;;;;;;15.56;79.60;102113.28;4991697;28;20221;-47
2023/05/28 08:58:17;;;;;;;9.23;3.67;;;;;;;15.50;80.53;102109.00;4980934;28;20192;-47
2023/05/28 09:00:45;;;;;;;12.05;4.47;;;;;;;15.08;82.45;102122.28;4983067;28;20177;-49
2023/05/28 09:03:32;;;;;;;14.63;4.55;;;;;;;14.75;84.61;102136.03;4985616;28;20251;-47
2023/05/28 09:06:04;;;;;;;10.52;3.95;;;;;;;14.91;85.06;102133.69;4984890;28;20213;-47
2023/05/28 09:08:30;;;;;;;10.13;3.97;;;;;;;15.13;85.38;102137.41;4974499;28;20185;-48
2023/05/28 09:10:56;;;;;;;10.32;4.40;;;;;;;14.46;85.45;102135.19;4981214;28;20280;-50
2023/05/28 09:13:23;;;;;;;13.35;4.53;;;;;;;15.02;86.08;102150.38;4989516;28;20186;-47
2023/05/28 09:15:52;;;;;;;12.00;4.63;;;;;;;14.62;87.15;102152.66;4983231;28;20382;-47
2023/05/28 09:18:21;;;;;;;13.15;4.50;;;;;;;14.83;87.58;102156.44;4993845;28;20343;-52
2023/05/28 09:20:49;;;;;;;12.07;4.78;;;;;;;14.52;87.34;102156.56;4974724;28;20173;-47
2023/05/28 09:23:17;;;;;;;12.20;4.60;;;;;;;14.95;87.50;102155.09;4976871;28;20189;-49
2023/05/28 09:26:02;;;;;;;14.27;4.93;;;;;;;14.96;86.76;102140.69;4987052;28;20294;-47
2023/05/28 09:28:41;;;;;;;15.63;4.88;;;;;;;15.08;86.28;102133.97;4974046;28;20240;-50
2023/05/28 09:31:07;;;;;;;13.90;4.82;;;;;;;14.99;86.02;102134.31;4979511;28;20201;-52
2023/05/28 09:33:33;;;;;;;12.43;4.45;;;;;;;14.90;85.97;102134.63;4982108;28;20586;-46
2023/05/28 09:36:00;;;;;;;11.88;4.15;;;;;;;15.32;85.46;102142.09;4980947;28;20202;-51
2023/05/28 09:38:27;;;;;;;12.32;4.68;;;;;;;15.16;85.03;102133.69;4977463;28;20192;-48
2023/05/28 09:40:56;;;;;;;14.73;4.35;;;;;;;14.91;86.29;102137.28;4976262;28;20194;-47
2023/05/28 09:43:30;;;;;;;14.10;4.55;;;;;;;15.13;86.05;102147.28;4984178;28;20194;-51
2023/05/28 09:46:08;;;;;;;12.40;4.20;;;;;;;15.08;86.22;102141.19;4981428;28;20571;-48
2023/05/28 09:48:34;;;;;;;12.90;4.80;;;;;;;15.27;85.13;102144.97;4978795;28;20248;-47
2023/05/28 09:51:03;;;;;;;12.98;4.40;;;;;;;15.51;81.92;102124.28;4972216;28;20228;-49
2023/05/28 09:53:33;;;;;;;10.18;3.80;;;;;;;15.30;78.43;102111.56;4979870;28;20185;-46
2023/05/28 09:55:59;;;;;;;11.93;3.92;;;;;;;15.66;77.71;102099.38;4981840;28;20201;-46
2023/05/28 09:58:31;;;;;;;11.68;4.32;;;;;;;15.89;75.90;102083.22;4990497;28;20173;-47
2023/05/28 10:01:00;;;;;;;12.45;3.80;;;;;;;15.94;72.70;102064.97;4977724;28;20257;-47
2023/05/28 10:03:37;;;;;;;9.02;3.63;;;;;;;15.80;69.99;102042.09;4984355;28;20204;-49
2023/05/28 10:06:13;;;;;;;11.45;3.92;;;;;;;15.78;72.29;102062.88;4974880;28;20211;-51
2023/05/28 10:08:40;;;;;;;8.93;3.70;;;;;;;15.71;72.02;102063.19;4985227;28;20192;-46
2023/05/28 10:11:13;;;;;;;8.77;3.25;;;;;;;15.85;71.55;102064.44;4979714;28;20193;-46
2023/05/28 10:13:39;;;;;;;9.75;3.75;;;;;;;15.74;72.26;102074.78;4974609;28;20276;-47
2023/05/28 10:16:05;;;;;;;9.02;2.90;;;;;;;15.53;72.13;102072.91;4971847;28;20305;-47
2023/05/28 10:18:31;;;;;;;7.63;3.70;;;;;;;15.60;71.83;102079.81;4986374;28;20656;-46
2023/05/28 10:20:58;;;;;;;9.90;3.60;;;;;;;15.40;74.01;102086.00;4979698;28;20698;-47
2023/05/28 10:23:24;;;;;;;9.35;3.60;;;;;;;15.36;74.25;102090.63;4983250;28;20591;-48
2023/05/28 10:25:50;;;;;;;11.48;3.30;;;;;;;15.27;73.88;102090.09;4975540;28;20264;-47
2023/05/28 10:28:16;;;;;;;9.57;3.58;;;;;;;15.53;74.04;102087.28;4980071;28;20184;-46
2023/05/28 10:30:42;;;;;;;11.63;3.67;;;;;;;15.53;75.10;102091.81;4985579;28;20196;-48
2023/05/28 10:33:11;;;;;;;13.93;4.28;;;;;;;15.64;74.77;102089.56;4987439;28;20204;-46
2023/05/28 10:35:53;;;;;;;9.57;3.85;;;;;;;15.42;74.92;102092.22;4980453;28;20206;-45
2023/05/28 10:38:19;;;;;;;9.80;3.80;;;;;;;15.32;74.83;102091.66;4975517;28;20197;-47
2023/05/28 10:40:44;;;;;;;10.18;3.50;;;;;;;15.43;74.85;102093.97;4978792;28;20169;-47
2023/05/28 10:43:38;;;;;;;9.52;3.60;;;;;;;15.54;74.64;102093.56;4973725;28;20192;-49
2023/05/28 10:46:22;;;;;;;8.80;2.90;;;;;;;15.54;74.95;102096.25;4994154;28;20205;-47
2023/05/28 10:49:16;;;;;;;10.55;2.58;;;;;;;15.44;74.22;102093.03;4980958;28;20185;-48
2023/05/28 10:52:00;;;;;;;3.67;2.25;;;;;;;15.71;73.58;102084.81;4982723;28;20209;-46
2023/05/28 10:54:31;;;;;;;3.47;1.63;;;;;;;15.80;72.59;102081.75;4994459;28;20208;-46
2023/05/28 10:57:20;;;;;;;4.38;2.03;;;;;;;15.88;72.09;102089.56;4989201;28;20618;-47
2023/05/28 11:00:06;;;;;;;2.95;1.50;;;;;;;15.71;70.37;102071.28;4993035;28;20174;-48
2023/05/28 11:02:35;;;;;;;6.80;2.33;;;;;;;15.81;71.34;102080.84;4989891;28;20204;-48
2023/05/28 11:05:05;;;;;;;5.57;1.80;;;;;;;16.02;70.66;102079.94;4981528;28;20205;-51
2023/05/28 11:07:32;;;;;;;4.20;1.85;;;;;;;15.92;70.36;102075.88;4974985;28;20158;-50
2023/05/28 11:09:58;;;;;;;5.07;2.10;;;;;;;15.95;71.38;102089.25;4974597;28;20192;-51
2023/05/28 11:12:29;;;;;;;2.72;1.70;;;;;;;16.06;70.46;102072.59;4987614;28;20255;-49
2023/05/28 11:14:55;;;;;;;3.75;1.80;;;;;;;16.34;69.85;102058.78;4976992;28;20301;-48
2023/05/28 11:17:21;;;;;;;2.35;1.88;;;;;;;16.12;71.00;102076.88;4990680;28;20195;-47
2023/05/28 11:19:49;;;;;;;4.60;2.60;;;;;;;15.86;72.56;102082.38;4979945;28;20193;-47
2023/05/28 11:22:16;;;;;;;8.05;3.25;;;;;;;15.89;74.25;102099.44;4982932;28;20173;-48
2023/05/28 11:24:53;;;;;;;5.35;2.20;;;;;;;15.87;73.49;102083.25;4981230;28;20685;-46
2023/05/28 11:27:21;;;;;;;1.95;1.67;;;;;;;16.07;71.75;102082.47;4977676;28;20177;-46
2023/05/28 11:29:47;;;;;;;3.10;1.48;;;;;;;16.19;70.49;102062.16;4988877;28;20718;-47